Time;durP1;ratioP1;P1;durP2;ratioP2;P2;SDS_P1;SDS_P2;PMS_P1;PMS_P2;Temp;Humidity;BMP_temperature;BMP_pressure;BME280_temperature;BME280_humidity;BME280_pressure;Samples;Min_cycle;Max_cycle;Signal;HPM_P1;HPM_P2
2024/02/12 00:02:39;;;;;;;1.90;1.80;;;;;;;12.86;51.07;97128.31;7004373;28;20210;-81
2024/02/12 00:06:00;;;;;;;2.00;1.80;;;;;;;12.92;51.07;97111.03;7004270;28;20703;-81
2024/02/12 00:09:22;;;;;;;1.70;1.60;;;;;;;12.64;51.18;97076.22;7007093;28;20235;-81
2024/02/12 00:12:44;;;;;;;1.70;1.60;;;;;;;12.78;51.23;97120.66;7005080;28;20213;-81
2024/02/12 00:16:06;;;;;;;1.80;1.70;;;;;;;13.03;50.96;97108.16;7004249;28;20234;-82
2024/02/12 00:19:29;;;;;;;1.67;1.60;;;;;;;13.33;50.51;97132.69;7004548;28;20182;-82
2024/02/12 00:22:51;;;;;;;1.60;1.50;;;;;;;13.08;50.74;97127.13;7004271;28;20316;-82
2024/02/12 00:26:12;;;;;;;1.80;1.70;;;;;;;12.75;51.82;97129.31;7002612;28;20271;-82
2024/02/12 00:29:34;;;;;;;1.53;1.43;;;;;;;13.02;51.64;97128.16;7002778;28;20337;-82
2024/02/12 00:32:56;;;;;;;1.60;1.50;;;;;;;13.21;51.11;97118.53;7003263;28;20216;-82
2024/02/12 00:36:19;;;;;;;1.70;1.60;;;;;;;13.00;51.59;97114.09;7002981;28;20233;-82
2024/02/12 00:39:40;;;;;;;1.40;1.30;;;;;;;12.82;52.12;97114.50;7003793;28;20692;-80
2024/02/12 00:43:02;;;;;;;1.73;1.63;;;;;;;12.40;53.68;97137.13;7003409;28;20289;-81
2024/02/12 00:46:24;;;;;;;1.70;1.60;;;;;;;12.73;52.40;97116.03;7002460;28;20248;-82
2024/02/12 00:49:48;;;;;;;1.43;1.43;;;;;;;12.76;52.73;97136.34;7002783;28;20296;-80
2024/02/12 00:53:11;;;;;;;1.80;1.70;;;;;;;12.78;52.66;97139.59;7002604;28;20229;-81
2024/02/12 00:56:33;;;;;;;2.40;1.70;;;;;;;13.21;51.87;97139.38;7007200;28;20229;-82
2024/02/12 00:59:54;;;;;;;1.60;1.50;;;;;;;13.31;51.35;97145.66;7006984;28;20669;-81
2024/02/12 01:03:16;;;;;;;2.97;2.77;;;;;;;13.46;51.30;97142.22;7007881;28;20286;-82
2024/02/12 01:06:37;;;;;;;1.53;1.50;;;;;;;12.86;52.30;97150.75;7007693;28;20277;-81
2024/02/12 01:10:01;;;;;;;1.30;1.30;;;;;;;13.34;51.41;97149.75;7007853;28;20208;-81
2024/02/12 01:13:24;;;;;;;2.00;1.43;;;;;;;12.98;52.32;97147.91;7007994;28;20201;-82
2024/02/12 01:16:46;;;;;;;1.73;1.63;;;;;;;13.17;51.77;97139.06;7007098;28;20233;-81
2024/02/12 01:20:10;;;;;;;1.80;1.70;;;;;;;13.44;51.14;97147.91;7008550;28;20793;-81
2024/02/12 01:23:32;;;;;;;1.63;1.40;;;;;;;13.23;51.68;97154.25;7006211;28;20213;-81
2024/02/12 01:26:55;;;;;;;1.60;1.50;;;;;;;13.43;50.96;97159.81;7007629;28;20331;-81
2024/02/12 01:30:17;;;;;;;1.70;1.60;;;;;;;13.50;50.78;97148.72;7012550;28;20239;-83
2024/02/12 01:33:39;;;;;;;1.70;1.60;;;;;;;13.34;51.02;97147.03;7019585;28;20259;-82
2024/02/12 01:37:00;;;;;;;1.50;1.40;;;;;;;13.16;51.88;97145.56;7011487;28;20279;-81
2024/02/12 01:40:21;;;;;;;1.77;1.67;;;;;;;13.31;51.42;97152.97;7009837;28;20622;-81
2024/02/12 01:43:44;;;;;;;1.80;1.70;;;;;;;13.38;51.06;97148.13;7010781;28;20239;-81
2024/02/12 01:47:07;;;;;;;1.60;1.50;;;;;;;13.47;51.00;97155.50;7009671;28;20685;-81
2024/02/12 01:50:29;;;;;;;2.20;1.70;;;;;;;12.73;52.44;97128.72;7009764;28;20205;-82
2024/02/12 01:53:51;;;;;;;1.97;1.87;;;;;;;12.75;53.13;97156.34;7010934;28;20229;-82
2024/02/12 01:57:13;;;;;;;2.97;2.67;;;;;;;12.45;54.00;97151.47;7009121;28;20229;-82
2024/02/12 02:00:37;;;;;;;1.50;1.50;;;;;;;12.75;53.07;97150.94;7010082;28;20198;-82
2024/02/12 02:04:01;;;;;;;1.70;1.60;;;;;;;12.45;53.51;97159.59;7008504;28;20205;-82
2024/02/12 02:07:24;;;;;;;1.33;1.30;;;;;;;12.58;53.42;97156.47;7008386;28;20226;-82
2024/02/12 02:10:48;;;;;;;1.70;1.60;;;;;;;12.74;52.74;97149.31;7008002;28;20697;-82
2024/02/12 02:14:09;;;;;;;1.57;1.57;;;;;;;12.31;53.71;97135.94;7007903;28;20255;-82
2024/02/12 02:17:33;;;;;;;1.77;1.67;;;;;;;12.67;53.11;97165.75;7006173;28;20256;-82
2024/02/12 02:20:54;;;;;;;1.43;1.43;;;;;;;12.79;52.75;97158.25;7007844;28;20289;-81
2024/02/12 02:24:18;;;;;;;2.30;1.80;;;;;;;12.86;52.63;97163.47;7006343;28;20295;-81
2024/02/12 02:27:39;;;;;;;1.70;1.60;;;;;;;12.95;52.58;97168.16;7007411;28;20221;-81
2024/02/12 02:31:01;;;;;;;1.40;1.40;;;;;;;12.81;52.79;97150.69;7008684;28;20233;-82
2024/02/12 02:34:22;;;;;;;1.33;1.33;;;;;;;12.65;52.96;97161.66;7007956;28;20286;-81
2024/02/12 02:37:44;;;;;;;1.77;1.67;;;;;;;12.79;53.03;97162.84;7006165;28;20822;-81
2024/02/12 02:41:07;;;;;;;2.60;2.00;;;;;;;12.44;53.77;97163.38;7007296;28;20205;-81
2024/02/12 02:44:29;;;;;;;1.43;1.43;;;;;;;12.21;54.53;97173.69;7007329;28;20205;-82
2024/02/12 02:47:53;;;;;;;1.33;1.33;;;;;;;12.56;53.70;97163.22;7006716;28;20233;-81
2024/02/12 02:51:15;;;;;;;1.50;1.50;;;;;;;12.70;53.10;97183.34;7006912;28;20202;-80
2024/02/12 02:54:36;;;;;;;3.60;3.30;;;;;;;13.05;52.25;97173.63;7006998;28;20206;-81
2024/02/12 02:58:01;;;;;;;2.13;1.70;;;;;;;13.28;51.87;97184.06;7006798;28;20271;-82
2024/02/12 03:01:23;;;;;;;1.60;1.50;;;;;;;13.33;51.61;97180.59;7007392;28;20212;-82
2024/02/12 03:04:44;;;;;;;1.70;1.60;;;;;;;13.04;51.49;97150.34;7008060;28;20690;-81
2024/02/12 03:08:08;;;;;;;1.43;1.33;;;;;;;12.90;52.13;97175.38;7006377;28;20309;-81
2024/02/12 03:11:29;;;;;;;1.40;1.40;;;;;;;12.59;53.01;97179.75;7007693;28;20205;-81
2024/02/12 03:14:52;;;;;;;1.50;1.50;;;;;;;13.30;51.63;97184.63;7007731;28;20221;-80
2024/02/12 03:18:20;;;;;;;1.47;1.37;;;;;;;13.08;51.89;97166.88;7006109;28;20338;-81
2024/02/12 03:21:41;;;;;;;1.67;1.57;;;;;;;12.99;52.16;97174.66;7006942;28;20198;-81
2024/02/12 03:25:03;;;;;;;2.00;1.90;;;;;;;13.02;52.18;97168.75;7006254;28;20300;-81
2024/02/12 03:28:25;;;;;;;1.50;1.40;;;;;;;12.98;52.75;97194.69;7006241;28;20267;-82
2024/02/12 03:31:47;;;;;;;1.60;1.50;;;;;;;12.44;53.67;97209.31;7007083;28;20259;-81
2024/02/12 03:35:09;;;;;;;1.47;1.43;;;;;;;12.85;52.73;97178.88;7017823;28;20210;-82
2024/02/12 03:38:31;;;;;;;1.50;1.40;;;;;;;13.06;52.77;97215.88;7005150;28;20322;-82
2024/02/12 03:41:53;;;;;;;1.83;1.60;;;;;;;13.01;53.41;97196.06;7005526;28;20268;-82
2024/02/12 03:45:15;;;;;;;1.67;1.57;;;;;;;12.69;53.42;97187.91;7005015;28;20205;-82
2024/02/12 03:59:53;;;;;;;1.80;1.70;;;;;;;12.26;54.54;97241.28;7004706;28;20198;-82
2024/02/12 04:03:15;;;;;;;1.83;1.70;;;;;;;12.38;54.56;97245.47;7005304;28;20567;-82
2024/02/12 04:06:38;;;;;;;1.50;1.50;;;;;;;12.45;54.13;97239.88;7004506;28;20259;-81
2024/02/12 04:10:00;;;;;;;1.90;1.80;;;;;;;12.39;54.14;97238.19;7004398;28;20763;-83
2024/02/12 04:13:22;;;;;;;1.60;1.50;;;;;;;12.68;54.04;97248.47;7002185;28;20214;-82
2024/02/12 04:16:47;;;;;;;1.40;1.40;;;;;;;12.53;54.14;97258.31;7003204;28;20267;-81
2024/02/12 04:20:10;;;;;;;1.60;1.50;;;;;;;12.33;54.79;97252.72;7004661;28;20238;-81
2024/02/12 04:23:33;;;;;;;1.67;1.57;;;;;;;12.89;53.19;97265.72;7004511;28;20305;-82
2024/02/12 04:26:55;;;;;;;1.70;1.60;;;;;;;12.84;52.94;97266.50;7005847;28;20740;-81
2024/02/12 04:30:17;;;;;;;1.70;1.60;;;;;;;12.40;53.46;97272.25;7007199;28;20597;-81
2024/02/12 04:33:38;;;;;;;1.47;1.47;;;;;;;12.43;53.87;97271.72;7010123;28;20316;-82
2024/02/12 04:37:01;;;;;;;1.87;1.67;;;;;;;12.49;53.06;97268.00;7010140;28;20249;-82
2024/02/12 04:40:24;;;;;;;1.60;1.50;;;;;;;12.84;52.34;97277.31;7010148;28;20536;-82
2024/02/12 04:43:46;;;;;;;1.60;1.50;;;;;;;12.34;52.33;97203.81;7010248;28;20216;-82
2024/02/12 04:47:09;;;;;;;2.10;1.47;;;;;;;12.91;52.35;97283.31;7010023;28;20286;-81
2024/02/12 04:50:30;;;;;;;1.50;1.50;;;;;;;12.65;52.94;97286.84;7009789;28;20206;-81
2024/02/12 04:53:53;;;;;;;1.80;1.70;;;;;;;12.16;54.00;97297.91;7011446;28;20233;-82
2024/02/12 04:57:15;;;;;;;1.60;1.50;;;;;;;12.42;53.78;97302.53;7009269;28;20221;-81
2024/02/12 05:00:37;;;;;;;1.90;1.80;;;;;;;12.56;53.48;97314.59;7010730;28;20201;-80
2024/02/12 05:03:59;;;;;;;1.80;1.70;;;;;;;12.56;53.42;97317.31;7010147;28;20207;-82
2024/02/12 05:07:21;;;;;;;2.07;1.50;;;;;;;12.52;53.38;97278.31;7009713;28;20310;-82
2024/02/12 05:10:42;;;;;;;1.80;1.70;;;;;;;12.49;53.74;97316.66;7010987;28;20302;-82
2024/02/12 05:14:05;;;;;;;1.57;1.57;;;;;;;12.75;52.85;97296.97;7010281;28;20259;-81
2024/02/12 05:17:41;;;;;;;2.33;1.63;;;;;;;12.21;53.30;97276.38;7010361;28;20225;-82
2024/02/12 05:24:43;;;;;;;2.00;1.90;;;;;;;12.59;52.67;97296.00;7011096;28;20190;-82
2024/02/12 05:28:05;;;;;;;2.60;2.40;;;;;;;12.43;53.75;97315.81;7011650;28;20222;-82
2024/02/12 05:31:28;;;;;;;2.00;1.90;;;;;;;12.46;53.24;97322.59;7011671;28;20254;-82
2024/02/12 05:34:49;;;;;;;2.20;2.10;;;;;;;12.20;54.33;97332.28;7011745;28;20204;-82
2024/02/12 05:38:11;;;;;;;3.50;2.30;;;;;;;12.14;54.00;97327.88;7011407;28;20229;-81
2024/02/12 05:41:32;;;;;;;2.50;2.30;;;;;;;12.21;54.52;97333.09;7011247;28;20268;-81
2024/02/12 05:44:54;;;;;;;2.60;2.20;;;;;;;11.94;54.50;97326.78;7012578;28;20233;-81
2024/02/12 05:48:17;;;;;;;2.17;1.97;;;;;;;12.70;53.28;97329.34;7011656;28;20221;-82
2024/02/12 05:51:38;;;;;;;2.37;2.17;;;;;;;12.75;53.17;97334.81;7028464;28;20232;-80
2024/02/12 05:55:00;;;;;;;2.30;2.20;;;;;;;12.52;53.66;97335.91;7030894;28;20201;-82
2024/02/12 05:58:24;;;;;;;1.97;1.83;;;;;;;12.54;53.05;97344.59;7017489;28;20251;-82
2024/02/12 06:01:45;;;;;;;2.40;2.20;;;;;;;12.97;52.51;97347.25;6998056;28;20212;-83
2024/02/12 06:05:08;;;;;;;2.87;2.53;;;;;;;12.52;52.92;97351.31;7000339;28;20287;-82
2024/02/12 06:08:30;;;;;;;2.60;2.40;;;;;;;12.72;52.84;97360.47;6994433;28;20272;-82
2024/02/12 06:11:52;;;;;;;5.07;2.83;;;;;;;12.60;52.98;97364.38;6978789;28;20206;-83
2024/02/12 06:15:13;;;;;;;4.07;2.60;;;;;;;12.84;52.61;97369.25;7000333;28;20269;-82
2024/02/12 06:18:35;;;;;;;3.00;2.70;;;;;;;12.43;53.92;97375.25;7003816;28;20245;-81
2024/02/12 06:21:58;;;;;;;2.70;2.50;;;;;;;12.43;53.97;97385.25;7004487;28;20210;-83
2024/02/12 06:25:19;;;;;;;5.40;2.63;;;;;;;12.52;53.11;97387.25;7005266;28;20252;-83
2024/02/12 06:28:42;;;;;;;3.83;3.40;;;;;;;12.74;52.54;97382.66;7004824;28;20322;-82
2024/02/12 06:32:09;;;;;;;3.63;2.80;;;;;;;12.57;52.79;97395.44;7005767;28;20772;-83
2024/02/12 06:35:30;;;;;;;5.73;3.00;;;;;;;12.67;52.29;97395.56;7006003;28;20248;-82
2024/02/12 06:38:53;;;;;;;4.40;3.00;;;;;;;12.60;52.05;97376.03;7006350;28;20316;-83
2024/02/12 06:42:16;;;;;;;4.63;3.00;;;;;;;12.85;51.65;97408.75;7005537;28;20284;-83
2024/02/12 06:45:37;;;;;;;3.17;2.90;;;;;;;12.81;51.01;97358.16;7000938;28;20649;-85
2024/02/12 06:48:59;;;;;;;7.83;3.43;;;;;;;12.64;52.92;97411.47;6985538;28;20830;-82
2024/02/12 06:52:22;;;;;;;5.30;4.00;;;;;;;12.58;52.86;97418.69;6992911;28;20280;-82
2024/02/12 06:55:46;;;;;;;3.37;3.07;;;;;;;12.83;52.13;97424.44;6998646;28;20209;-83
2024/02/12 06:59:07;;;;;;;6.27;3.30;;;;;;;12.41;53.25;97425.22;7007739;28;20225;-83
2024/02/12 07:02:29;;;;;;;4.30;2.70;;;;;;;12.62;52.91;97422.53;7009192;28;20730;-84
2024/02/12 07:05:51;;;;;;;5.77;3.03;;;;;;;12.75;52.35;97422.16;7009488;28;20286;-83
2024/02/12 07:09:13;;;;;;;4.47;3.27;;;;;;;12.58;52.08;97386.25;7007043;28;20255;-81
2024/02/12 07:12:37;;;;;;;3.23;2.43;;;;;;;13.05;51.67;97409.00;7006235;28;20304;-81
2024/02/12 07:16:20;;;;;;;2.43;2.23;;;;;;;13.00;51.63;97405.44;7005399;28;20209;-85
2024/02/12 07:19:46;;;;;;;3.63;2.30;;;;;;;13.24;51.69;97448.19;7007865;28;20221;-84
2024/02/12 07:23:08;;;;;;;2.73;2.37;;;;;;;13.03;52.47;97453.63;7006209;28;20749;-80
2024/02/12 07:26:30;;;;;;;2.73;2.47;;;;;;;13.32;51.63;97461.25;7011025;28;20245;-80
2024/02/12 07:29:53;;;;;;;4.17;3.77;;;;;;;13.18;52.11;97461.91;7006238;28;20197;-82
2024/02/12 07:33:14;;;;;;;2.83;2.50;;;;;;;13.14;52.43;97467.03;7004635;28;20224;-80
2024/02/12 07:36:42;;;;;;;2.63;2.43;;;;;;;13.38;51.49;97465.66;7003857;28;20264;-81
2024/02/12 07:40:06;;;;;;;2.70;2.50;;;;;;;13.29;51.85;97475.28;6998736;28;20617;-82
2024/02/12 07:43:28;;;;;;;3.97;2.50;;;;;;;12.91;51.56;97439.38;6998144;28;20557;-80
2024/02/12 07:46:51;;;;;;;3.30;2.70;;;;;;;13.27;51.35;97490.97;7001894;28;20232;-81
2024/02/12 07:50:13;;;;;;;2.57;2.37;;;;;;;13.00;52.30;97502.84;7008174;28;20273;-79
2024/02/12 07:53:35;;;;;;;3.60;2.73;;;;;;;12.98;51.96;97505.78;7003986;28;20212;-82
2024/02/12 07:56:57;;;;;;;3.07;2.40;;;;;;;12.81;52.21;97506.88;7003254;28;20358;-83
2024/02/12 08:00:18;;;;;;;3.70;2.37;;;;;;;12.77;52.14;97500.34;7001495;28;20221;-81
2024/02/12 08:03:41;;;;;;;2.80;2.30;;;;;;;12.93;51.55;97499.47;7001011;28;20682;-82
2024/02/12 08:07:04;;;;;;;2.90;2.70;;;;;;;12.95;51.40;97503.59;7000649;28;20312;-83
2024/02/12 08:10:26;;;;;;;2.40;2.20;;;;;;;13.23;51.01;97522.31;6979260;28;20205;-81
2024/02/12 08:13:48;;;;;;;2.97;2.30;;;;;;;13.29;50.75;97506.97;6999446;28;20310;-82
2024/02/12 08:17:10;;;;;;;2.50;2.27;;;;;;;13.53;50.36;97529.97;6996959;28;20741;-79
2024/02/12 08:20:33;;;;;;;2.60;2.40;;;;;;;12.85;51.39;97522.34;7000739;28;20245;-82
2024/02/12 08:23:54;;;;;;;3.07;2.57;;;;;;;12.51;52.31;97499.16;6988936;28;20664;-82
2024/02/12 08:27:16;;;;;;;2.40;2.30;;;;;;;13.00;50.83;97525.31;6977005;28;20295;-81
2024/02/12 08:30:37;;;;;;;3.03;2.20;;;;;;;13.45;49.99;97530.44;6983016;28;20207;-82
2024/02/12 08:34:00;;;;;;;2.93;2.37;;;;;;;13.20;50.73;97536.38;6998677;28;20315;-82
2024/02/12 08:37:24;;;;;;;2.37;2.17;;;;;;;13.75;49.74;97542.41;6997430;28;20225;-83
2024/02/12 08:40:49;;;;;;;2.13;2.00;;;;;;;13.04;50.58;97555.38;6997317;28;20278;-83
2024/02/12 08:44:10;;;;;;;2.00;1.90;;;;;;;12.94;51.53;97556.03;6997967;28;20194;-83
2024/02/12 08:47:32;;;;;;;2.07;1.97;;;;;;;13.29;51.01;97551.09;6998070;28;20374;-81
2024/02/12 08:50:53;;;;;;;2.80;2.50;;;;;;;13.11;50.63;97556.81;7003091;28;20287;-83
2024/02/12 08:54:16;;;;;;;2.70;1.90;;;;;;;13.48;49.30;97565.94;7000298;28;20293;-83
2024/02/12 08:57:39;;;;;;;2.50;2.30;;;;;;;12.70;50.80;97508.63;7000550;28;20309;-85
2024/02/12 09:01:01;;;;;;;3.00;2.07;;;;;;;13.22;50.13;97569.41;7001852;28;20210;-83
2024/02/12 09:04:23;;;;;;;2.70;2.10;;;;;;;13.21;50.30;97572.38;7003370;28;20290;-83
2024/02/12 09:07:45;;;;;;;2.57;2.37;;;;;;;13.03;50.81;97586.19;7002191;28;20270;-79
2024/02/12 09:11:08;;;;;;;2.10;2.00;;;;;;;13.18;50.32;97579.13;7005093;28;20294;-79
2024/02/12 09:14:29;;;;;;;2.53;2.33;;;;;;;13.44;50.58;97583.75;7005222;28;20246;-78
2024/02/12 09:17:51;;;;;;;2.40;2.20;;;;;;;13.12;50.25;97590.94;7005808;28;20232;-78
2024/02/12 09:21:13;;;;;;;2.83;2.63;;;;;;;13.61;50.67;97580.97;7007087;28;20685;-79
2024/02/12 09:24:35;;;;;;;2.30;2.20;;;;;;;13.59;49.60;97591.25;7003677;28;20578;-81
2024/02/12 09:27:59;;;;;;;4.67;2.50;;;;;;;14.11;49.59;97587.72;6998563;28;20618;-80
2024/02/12 09:31:21;;;;;;;2.10;2.00;;;;;;;14.31;49.60;97596.09;6988660;28;20606;-78
2024/02/12 09:34:42;;;;;;;3.00;2.20;;;;;;;14.37;49.24;97605.91;6997234;28;20201;-81
2024/02/12 09:38:04;;;;;;;2.20;2.00;;;;;;;14.45;48.23;97605.44;7004386;28;20322;-81
2024/02/12 09:41:28;;;;;;;2.83;2.00;;;;;;;14.26;47.92;97587.91;7003267;28;20234;-81
2024/02/12 09:44:51;;;;;;;2.00;1.90;;;;;;;14.44;47.85;97616.53;7003847;28;20206;-81
2024/02/12 09:48:13;;;;;;;2.47;2.27;;;;;;;14.39;47.19;97557.66;7003400;28;20226;-81
2024/02/12 09:51:35;;;;;;;2.37;2.17;;;;;;;14.74;46.99;97622.22;6996889;28;20261;-81
2024/02/12 09:54:57;;;;;;;2.10;2.00;;;;;;;14.21;48.20;97596.00;7007620;28;20204;-81
2024/02/12 09:58:19;;;;;;;2.60;2.40;;;;;;;14.54;47.81;97614.75;7006908;28;20270;-82
2024/02/12 10:01:43;;;;;;;2.40;2.30;;;;;;;14.52;47.15;97619.59;7002829;28;20217;-86
2024/02/12 10:05:06;;;;;;;2.77;2.33;;;;;;;14.79;46.93;97624.94;7001683;28;20209;-86
2024/02/12 10:08:28;;;;;;;2.20;2.10;;;;;;;14.57;46.60;97619.63;6995376;28;20665;-86
2024/02/12 10:11:49;;;;;;;3.30;1.93;;;;;;;14.69;46.82;97624.91;6986010;28;20258;-86
2024/02/12 10:15:13;;;;;;;2.47;2.27;;;;;;;14.50;47.65;97632.59;7002955;28;20225;-83
2024/02/12 10:18:39;;;;;;;2.83;2.53;;;;;;;14.36;48.00;97625.97;7003076;28;20225;-83
2024/02/12 10:22:01;;;;;;;2.93;2.27;;;;;;;14.66;47.41;97626.22;7004892;28;20626;-82
2024/02/12 10:25:22;;;;;;;2.30;2.17;;;;;;;14.61;46.98;97636.19;7004372;28;20675;-82
2024/02/12 10:28:44;;;;;;;2.47;2.20;;;;;;;14.48;47.93;97642.06;6979192;28;20264;-86
2024/02/12 10:32:06;;;;;;;2.90;2.60;;;;;;;14.63;47.95;97639.50;6971893;28;20727;-87
2024/02/12 10:35:30;;;;;;;2.87;2.50;;;;;;;14.67;47.22;97599.91;6987327;28;20789;-86
2024/02/12 15:12:12;;;;;;;6.40;2.60;;;;;;;14.98;45.20;97792.56;6972510;28;20171;-85
2024/02/12 15:15:37;;;;;;;2.77;2.50;;;;;;;14.05;45.57;97661.94;6964760;28;20303;-83
2024/02/12 15:18:58;;;;;;;6.13;2.60;;;;;;;14.47;45.40;97746.19;6963539;28;20685;-84
2024/02/12 15:22:23;;;;;;;5.60;2.60;;;;;;;13.82;45.20;97693.91;6957747;28;20216;-85
2024/02/12 15:25:44;;;;;;;4.10;2.10;;;;;;;14.13;45.31;97709.44;6964358;28;20213;-84
2024/02/12 15:29:10;;;;;;;2.33;2.13;;;;;;;13.91;46.02;97739.28;6980301;28;20211;-85
2024/02/12 15:32:36;;;;;;;4.23;2.30;;;;;;;14.12;46.17;97756.59;6958416;28;20199;-84
2024/02/12 15:36:01;;;;;;;2.60;2.20;;;;;;;14.25;45.99;97731.84;6957870;28;20287;-83
2024/02/12 15:39:22;;;;;;;5.83;2.43;;;;;;;14.47;45.80;97778.75;6971134;28;20230;-84
2024/02/12 15:42:45;;;;;;;3.67;2.40;;;;;;;14.24;46.17;97806.13;6968997;28;20208;-84
2024/02/12 15:46:11;;;;;;;9.47;2.33;;;;;;;13.89;46.63;97814.59;6957404;28;20600;-84
2024/02/12 15:49:33;;;;;;;2.90;2.10;;;;;;;14.05;45.58;97819.13;6958737;28;20601;-84
2024/02/12 15:52:55;;;;;;;4.43;2.30;;;;;;;14.37;45.71;97865.41;6969101;28;20211;-79
2024/02/12 15:56:17;;;;;;;5.73;2.57;;;;;;;14.10;45.93;97864.47;6960858;28;20314;-79
2024/02/12 15:59:38;;;;;;;5.63;2.70;;;;;;;14.36;45.80;97869.19;6966094;28;20311;-80
2024/02/12 16:03:02;;;;;;;2.27;2.07;;;;;;;14.54;45.28;97893.28;6959329;28;20217;-80
2024/02/12 16:06:24;;;;;;;5.23;2.60;;;;;;;14.03;45.47;97885.47;6965369;28;20233;-80
2024/02/12 16:09:47;;;;;;;2.17;1.90;;;;;;;13.82;45.86;97881.69;6964628;28;20669;-80
2024/02/12 16:13:08;;;;;;;2.30;2.10;;;;;;;13.78;45.54;97901.38;6970457;28;20285;-81
2024/02/12 16:16:30;;;;;;;3.27;2.10;;;;;;;13.96;45.63;97891.09;6962891;28;20258;-79
2024/02/12 16:19:53;;;;;;;3.93;2.20;;;;;;;13.57;45.26;97858.78;6970590;28;20226;-80
2024/02/12 16:23:15;;;;;;;3.97;2.60;;;;;;;13.94;44.79;97912.22;6963461;28;20279;-80
2024/02/12 16:26:36;;;;;;;3.77;2.37;;;;;;;14.08;46.23;97921.63;6961219;28;20628;-80
2024/02/12 16:29:58;;;;;;;3.47;2.70;;;;;;;13.73;48.14;97902.13;6962245;28;20302;-81
2024/02/12 16:33:19;;;;;;;4.17;2.90;;;;;;;13.71;49.84;97923.22;6977495;28;20242;-80
2024/02/12 16:36:42;;;;;;;3.70;2.90;;;;;;;13.06;52.03;97932.88;6987452;28;20262;-80
2024/02/12 16:40:05;;;;;;;4.90;2.90;;;;;;;13.30;51.87;97947.13;6980614;28;20684;-79
2024/02/12 16:43:27;;;;;;;4.40;2.93;;;;;;;13.20;51.60;97901.75;6984478;28;20234;-80
2024/02/12 16:46:48;;;;;;;3.77;3.07;;;;;;;13.35;51.62;97929.09;6981222;28;20254;-79
2024/02/12 16:50:13;;;;;;;5.20;3.50;;;;;;;13.82;50.54;97959.41;6989051;28;20344;-81
2024/02/12 16:53:36;;;;;;;3.37;3.00;;;;;;;13.77;51.17;97965.59;6975071;28;20207;-80
2024/02/12 16:56:57;;;;;;;4.87;3.20;;;;;;;14.05;50.37;97970.09;6977473;28;20717;-80
2024/02/12 17:00:20;;;;;;;5.00;3.30;;;;;;;13.96;50.74;97987.81;6975480;28;20225;-80
2024/02/12 17:03:41;;;;;;;7.43;4.20;;;;;;;13.84;50.98;97992.50;6974826;28;20642;-80
2024/02/12 17:07:03;;;;;;;5.27;3.97;;;;;;;13.80;51.17;97999.50;6970846;28;20234;-80
2024/02/12 17:10:29;;;;;;;6.67;3.87;;;;;;;13.99;50.80;98009.03;6979105;28;20289;-79
2024/02/12 17:13:51;;;;;;;6.17;4.27;;;;;;;13.85;50.76;98011.22;6964627;28;20203;-79
2024/02/12 17:17:13;;;;;;;5.50;4.47;;;;;;;13.93;50.73;98016.22;6969104;28;20241;-81
2024/02/12 17:20:37;;;;;;;6.40;3.90;;;;;;;13.54;51.32;98014.47;6975641;28;20290;-82
2024/02/12 17:23:58;;;;;;;6.47;4.43;;;;;;;13.58;51.54;98031.06;6971422;28;20211;-83
2024/02/12 17:27:21;;;;;;;8.47;4.63;;;;;;;13.59;51.62;98040.81;6975891;28;20269;-82
2024/02/12 17:30:42;;;;;;;6.27;4.17;;;;;;;13.65;51.54;98043.38;6976734;28;20267;-82
2024/02/12 17:34:05;;;;;;;6.73;4.60;;;;;;;13.80;51.63;98042.84;6970541;28;20636;-82
2024/02/12 17:37:26;;;;;;;5.87;4.37;;;;;;;13.74;51.08;98060.88;6975783;28;20233;-82
2024/02/12 17:40:49;;;;;;;7.83;4.90;;;;;;;13.64;51.73;98068.00;6977690;28;20308;-83
2024/02/12 17:44:13;;;;;;;4.97;4.47;;;;;;;13.72;51.32;98064.88;6980863;28;20206;-82
2024/02/12 17:47:35;;;;;;;9.80;4.90;;;;;;;13.42;51.52;98078.69;6975677;28;20226;-82
2024/02/12 17:50:57;;;;;;;6.83;5.10;;;;;;;13.37;51.70;98083.16;6975646;28;20218;-82
2024/02/12 17:54:19;;;;;;;6.17;5.00;;;;;;;13.28;51.80;98076.50;6978692;28;20296;-80
2024/02/12 17:57:41;;;;;;;9.50;7.13;;;;;;;13.43;51.65;98087.63;6975656;28;20264;-81
2024/02/12 18:01:04;;;;;;;12.87;8.80;;;;;;;13.51;51.77;98095.38;6973665;28;20230;-80
2024/02/12 18:04:26;;;;;;;10.57;8.03;;;;;;;13.50;51.32;98072.88;6979938;28;20233;-81
2024/02/12 18:07:48;;;;;;;29.90;18.00;;;;;;;13.26;51.74;98108.38;6978522;28;20712;-81
2024/02/12 18:11:09;;;;;;;22.07;14.10;;;;;;;13.25;52.23;98109.44;6971378;28;20207;-80
2024/02/12 18:14:31;;;;;;;16.90;10.43;;;;;;;13.30;52.12;98104.13;6989258;28;20356;-79
2024/02/12 18:17:54;;;;;;;10.40;6.30;;;;;;;13.41;51.85;98120.38;6972019;28;20222;-80
2024/02/12 18:21:17;;;;;;;8.93;5.20;;;;;;;13.19;51.98;98132.06;7004290;28;20237;-80
2024/02/12 18:24:38;;;;;;;8.70;5.70;;;;;;;13.26;52.53;98138.16;7009863;28;20206;-78
2024/02/12 18:28:00;;;;;;;9.60;7.37;;;;;;;12.40;53.18;98081.25;6991531;28;20230;-81
2024/02/12 18:31:22;;;;;;;14.47;9.13;;;;;;;13.13;52.92;98150.06;6975338;28;20777;-81
2024/02/12 18:34:45;;;;;;;10.97;7.13;;;;;;;13.14;52.41;98153.59;6982421;28;20210;-81
2024/02/12 18:38:08;;;;;;;19.50;12.80;;;;;;;12.82;52.75;98133.34;6966400;28;20232;-81
2024/02/12 18:41:31;;;;;;;17.17;10.77;;;;;;;12.93;53.17;98167.69;6966371;28;20272;-81
2024/02/12 18:44:53;;;;;;;11.70;8.60;;;;;;;12.99;52.56;98158.66;6974773;28;20259;-81
2024/02/12 18:48:15;;;;;;;17.43;12.03;;;;;;;12.47;53.63;98179.31;6972805;28;20233;-82
2024/02/12 18:51:38;;;;;;;21.73;15.50;;;;;;;12.38;54.47;98188.78;6983586;28;20198;-81
2024/02/12 18:54:59;;;;;;;13.90;9.13;;;;;;;12.61;53.81;98186.13;6975318;28;20234;-80
2024/02/12 18:58:21;;;;;;;25.57;18.20;;;;;;;12.55;53.91;98192.47;6971767;28;20226;-82
2024/02/12 19:01:44;;;;;;;12.27;8.93;;;;;;;12.35;54.26;98205.50;6964611;28;20266;-81
2024/02/12 19:05:07;;;;;;;14.27;10.27;;;;;;;12.22;54.62;98194.84;6965264;28;20251;-82
2024/02/12 19:08:29;;;;;;;15.50;11.10;;;;;;;12.46;54.12;98211.97;6964756;28;20245;-80
2024/02/12 19:11:51;;;;;;;12.20;7.57;;;;;;;11.95;55.44;98212.50;6966095;28;20217;-81
2024/02/12 19:15:17;;;;;;;8.80;6.70;;;;;;;12.07;55.08;98228.75;6967022;28;20202;-80
2024/02/12 19:18:42;;;;;;;10.63;7.63;;;;;;;11.52;55.98;98222.53;6974363;28;20288;-81
2024/02/12 19:22:04;;;;;;;9.53;7.93;;;;;;;11.73;55.54;98235.63;6972641;28;20263;-80
2024/02/12 19:25:27;;;;;;;12.47;7.20;;;;;;;11.50;55.70;98242.69;6966954;28;20614;-80
2024/02/12 19:28:48;;;;;;;8.83;7.00;;;;;;;10.71;57.68;98247.19;6974185;28;20309;-83
2024/02/12 19:32:10;;;;;;;9.63;6.67;;;;;;;11.21;57.82;98238.06;6965488;28;20279;-82
2024/02/12 19:35:32;;;;;;;11.77;6.97;;;;;;;11.96;55.00;98248.41;6968193;28;20665;-82
2024/02/12 19:38:54;;;;;;;12.87;7.37;;;;;;;11.82;53.75;98255.06;6988080;28;20257;-80
2024/02/12 19:42:17;;;;;;;10.77;7.10;;;;;;;11.78;53.83;98253.84;6981643;28;20230;-80
2024/02/12 19:45:39;;;;;;;8.40;5.07;;;;;;;11.76;53.73;98261.34;6979191;28;20259;-81
2024/02/12 19:49:01;;;;;;;7.60;4.77;;;;;;;12.10;52.24;98250.72;6974378;28;20237;-83
2024/02/12 19:52:22;;;;;;;6.83;5.13;;;;;;;11.65;52.95;98262.09;6968945;28;20275;-83
2024/02/12 19:55:44;;;;;;;7.83;5.17;;;;;;;11.91;52.56;98277.97;6975884;28;20205;-80
2024/02/12 19:59:07;;;;;;;12.07;6.00;;;;;;;11.68;53.05;98278.69;6982707;28;20265;-83
2024/02/12 20:02:28;;;;;;;16.60;11.37;;;;;;;11.42;54.29;98278.09;6990797;28;20225;-80
2024/02/12 20:05:50;;;;;;;13.73;7.20;;;;;;;11.68;53.45;98288.66;6978804;28;20228;-82
2024/02/12 20:09:11;;;;;;;9.13;6.60;;;;;;;11.57;54.03;98292.06;6979433;28;20210;-83
2024/02/12 20:12:34;;;;;;;7.63;5.27;;;;;;;11.41;53.89;98292.66;6992230;28;20210;-84
2024/02/12 20:15:57;;;;;;;5.90;5.00;;;;;;;11.00;55.35;98301.31;6979384;28;20237;-82
2024/02/12 20:19:22;;;;;;;6.23;5.27;;;;;;;10.99;55.84;98312.31;6970340;28;20253;-82
2024/02/12 20:22:44;;;;;;;8.73;4.53;;;;;;;11.12;55.55;98315.75;6984078;28;20222;-82
2024/02/12 20:26:05;;;;;;;7.57;5.27;;;;;;;10.82;56.13;98322.84;6983454;28;20230;-83
2024/02/12 20:29:28;;;;;;;6.63;5.57;;;;;;;10.15;58.09;98325.28;6956364;28;20300;-80
2024/02/12 20:32:52;;;;;;;7.97;6.00;;;;;;;10.82;57.28;98314.75;6965231;28;20199;-81
2024/02/12 20:36:14;;;;;;;7.47;5.37;;;;;;;11.08;56.94;98338.81;6976993;28;20237;-80
2024/02/12 20:39:36;;;;;;;7.43;5.00;;;;;;;11.25;55.46;98339.06;6976272;28;20694;-80